• °C
  • Pobieranie danych...
wx


PRINT OUT SECTION, show »

TAF EPBY 182330Z 1900/1924 35008KT 9999 BKN030
PROB30 TEMPO 1901/1906 SCT006 BKN013
TEMPO 1907/1915 03014G25KT=

TAF EPGD 182330Z 1900/1924 03008KT 9999 SCT020 BKN040
PROB40 TEMPO 1909/1917 04015G27KT=

TAF EPKK 190230Z 1903/2003 30010KT 9999 BKN020
TEMPO 1903/1906 BKN010
BECMG 1915/1918 24002KT
TEMPO 2000/2003 3000 BR=

TAF AMD EPKT 190248Z 1902/1924 31010KT 9999 OVC009
BECMG 1904/1907 BKN020=

TAF EPLB 182330Z 1900/1924 33010KT 9999 -RA SCT012 BKN020
TEMPO 1900/1924 SCT007 BKN012
PROB40 TEMPO 1900/1912 4000 RADZ BR BKN004 BKN007=

TAF EPLL 182330Z 1900/1924 35008KT 9999 BKN025
PROB40 TEMPO 1900/1903 -RA SCT007 BKN012=

TAF EPMO 182330Z 1900/1924 34008KT 9999 BKN025
PROB40 TEMPO 1900/1903 -RA BKN007 BKN012=

TAF EPPO 182330Z 1900/1924 36006KT 9999 BKN026=

TAF EPRZ 182330Z 1900/1924 32012KT 9999 BKN015
TEMPO 1900/1906 3000 RA BKN007=

TAF EPSC 182330Z 1900/1924 VRB04KT 9999 SCT020 BKN040
BECMG 1907/1910 02010KT
BECMG 1917/1920 VRB02KT=

TAF EPWA 190230Z 1903/2003 33010KT 9999 BKN023
TEMPO 1903/1906 BKN012
PROB40 TEMPO 1903/1905 BKN008=

TAF EPWR 190230Z 1903/2003 35006KT 9999 BKN040=



IMGW-PIB Sites